createdAt,value
2018-06-17T00:00:02.991Z,1.20
2018-06-17T00:02:30.447Z,1.00
2018-06-17T00:04:58.199Z,1.30
2018-06-17T00:07:25.651Z,1.20
2018-06-17T00:09:53.128Z,1.10
2018-06-17T00:12:20.596Z,1.03
2018-06-17T00:14:48.068Z,1.23
2018-06-17T00:17:15.510Z,1.30
2018-06-17T00:19:42.978Z,1.13
2018-06-17T00:22:10.472Z,1.30
2018-06-17T00:24:37.930Z,1.20
2018-06-17T00:27:05.495Z,2.00
2018-06-17T00:29:32.953Z,1.20
2018-06-17T00:32:00.403Z,1.80
2018-06-17T00:34:27.872Z,1.30
2018-06-17T00:36:55.327Z,1.17
2018-06-17T00:39:22.788Z,1.50
2018-06-17T00:41:50.240Z,1.10
2018-06-17T00:44:17.708Z,1.13
2018-06-17T00:46:45.156Z,1.27
2018-06-17T00:49:13.836Z,1.43
2018-06-17T00:51:41.288Z,1.40
2018-06-17T00:54:08.746Z,1.20
2018-06-17T00:56:36.970Z,1.20
2018-06-17T00:59:04.418Z,1.20
2018-06-17T01:01:31.892Z,1.40
2018-06-17T01:03:59.339Z,1.50
2018-06-17T01:06:26.807Z,1.40
2018-06-17T01:08:54.267Z,1.43
2018-06-17T01:11:21.726Z,1.00
2018-06-17T01:13:49.213Z,1.40
2018-06-17T01:16:17.247Z,1.40
2018-06-17T01:18:44.694Z,1.57
2018-06-17T01:21:12.927Z,1.50
2018-06-17T01:23:40.396Z,1.33
2018-06-17T01:26:07.856Z,1.30
2018-06-17T01:28:35.327Z,1.33
2018-06-17T01:31:03.546Z,1.63
2018-06-17T01:33:31.067Z,1.20
2018-06-17T01:35:58.542Z,1.73
2018-06-17T01:38:27.499Z,1.23
2018-06-17T01:40:54.973Z,1.20
2018-06-17T01:43:22.435Z,1.70
2018-06-17T01:45:49.898Z,1.70
2018-06-17T01:48:17.354Z,1.50
2018-06-17T01:50:44.820Z,1.60
2018-06-17T01:53:12.391Z,1.40
2018-06-17T01:55:39.847Z,1.70
2018-06-17T01:58:07.318Z,1.50
2018-06-17T02:00:34.879Z,1.70
2018-06-17T02:03:02.387Z,1.47
2018-06-17T02:08:37.200Z,1.98
2018-06-17T02:11:24.365Z,2.07
2018-06-17T02:13:51.820Z,1.60
2018-06-17T02:16:19.286Z,1.27
2018-06-17T02:18:46.728Z,1.90
2018-06-17T02:21:14.197Z,1.87
2018-06-17T02:23:41.660Z,1.83
2018-06-17T02:26:09.124Z,2.00
2018-06-17T02:28:36.596Z,1.60
2018-06-17T02:31:04.042Z,1.50
2018-06-17T02:33:31.525Z,2.00
2018-06-17T02:35:58.978Z,1.77
2018-06-17T02:38:26.449Z,2.10
2018-06-17T02:40:53.927Z,2.17
2018-06-17T02:43:21.521Z,1.90
2018-06-17T02:45:48.944Z,2.17
2018-06-17T02:48:22.263Z,1.80
2018-06-17T02:50:49.704Z,1.70
2018-06-17T02:56:14.027Z,2.28
2018-06-17T02:58:41.480Z,1.97
2018-06-17T03:01:09.728Z,2.00
2018-06-17T03:03:37.191Z,2.37
2018-06-17T03:06:04.661Z,1.60
2018-06-17T03:08:32.119Z,1.90
2018-06-17T03:10:59.583Z,2.20
2018-06-17T03:13:27.050Z,1.97
2018-06-17T03:15:54.524Z,2.30
2018-06-17T03:18:22.094Z,1.93
2018-06-17T03:20:49.531Z,2.00
2018-06-17T03:23:17.011Z,1.83
2018-06-17T03:25:59.347Z,2.17
2018-06-17T03:31:20.836Z,2.30
2018-06-17T03:33:48.295Z,2.10
2018-06-17T03:36:15.761Z,1.93
2018-06-17T03:38:44.026Z,2.13
2018-06-17T03:41:11.493Z,2.20
2018-06-17T03:43:38.964Z,1.77
2018-06-17T03:46:06.436Z,1.80
2018-06-17T03:48:33.900Z,2.13
2018-06-17T03:51:01.371Z,2.13
2018-06-17T03:53:28.830Z,2.20
2018-06-17T03:55:56.287Z,2.07
2018-06-17T03:58:23.754Z,2.13
2018-06-17T04:00:51.222Z,2.30
2018-06-17T04:03:18.684Z,2.00
2018-06-17T04:05:46.908Z,1.73
2018-06-17T04:08:14.410Z,2.23
2018-06-17T04:10:41.857Z,2.00
2018-06-17T04:13:09.311Z,1.50
2018-06-17T04:15:36.782Z,1.70
2018-06-17T04:18:04.254Z,1.93
2018-06-17T04:20:31.731Z,2.30
2018-06-17T04:22:59.189Z,1.73
2018-06-17T04:25:26.706Z,1.90
2018-06-17T04:27:54.110Z,1.70
2018-06-17T04:30:21.971Z,1.70
2018-06-17T04:32:49.420Z,1.60
2018-06-17T04:35:16.884Z,1.50
2018-06-17T04:37:44.449Z,1.90
2018-06-17T04:40:12.086Z,1.83
2018-06-17T04:42:40.300Z,2.00
2018-06-17T04:45:07.771Z,1.53
2018-06-17T04:47:35.335Z,1.90
2018-06-17T04:50:02.788Z,2.00
2018-06-17T04:52:30.246Z,1.70
2018-06-17T04:54:57.725Z,1.50
2018-06-17T04:57:25.196Z,1.60
2018-06-17T04:59:52.657Z,1.40
2018-06-17T05:02:20.192Z,1.50
2018-06-17T05:04:47.755Z,1.67
2018-06-17T05:07:15.207Z,1.50
2018-06-17T05:09:42.682Z,1.60
2018-06-17T05:12:10.151Z,1.70
2018-06-17T05:14:37.596Z,1.67
2018-06-17T05:17:05.075Z,1.80
2018-06-17T05:19:32.527Z,1.40
2018-06-17T05:22:00.099Z,1.73
2018-06-17T05:24:27.658Z,1.20
2018-06-17T05:26:55.147Z,1.57
2018-06-17T05:29:22.606Z,1.30
2018-06-17T05:31:50.871Z,1.40
2018-06-17T05:34:18.330Z,1.43
2018-06-17T05:36:46.170Z,1.27
2018-06-17T05:39:13.664Z,1.40
2018-06-17T05:41:41.125Z,1.03
2018-06-17T05:44:08.580Z,1.00
2018-06-17T05:46:36.031Z,1.13
2018-06-17T05:49:03.516Z,2.23
2018-06-17T05:51:30.983Z,1.50
2018-06-17T05:53:58.453Z,1.50
2018-06-17T05:56:25.911Z,1.53
2018-06-17T05:58:53.461Z,1.40
2018-06-17T06:01:20.929Z,1.47
2018-06-17T06:03:48.496Z,1.00
2018-06-17T06:06:15.949Z,1.60
2018-06-17T06:08:43.415Z,1.17
2018-06-17T06:11:10.876Z,1.30
2018-06-17T06:13:38.446Z,1.30
2018-06-17T06:16:06.306Z,1.07
2018-06-17T06:18:33.749Z,1.30
2018-06-17T06:21:01.211Z,1.20
2018-06-17T06:23:28.675Z,1.20
2018-06-17T06:25:56.204Z,1.17
2018-06-17T06:28:24.424Z,1.33
2018-06-17T06:30:51.964Z,1.43
2018-06-17T06:33:19.390Z,1.20
2018-06-17T06:35:47.607Z,1.40
2018-06-17T06:38:15.076Z,1.23
2018-06-17T06:40:42.542Z,1.40
2018-06-17T06:43:10.012Z,1.00
2018-06-17T06:45:37.539Z,1.20
2018-06-17T06:48:05.046Z,1.37
2018-06-17T06:50:32.611Z,1.40
2018-06-17T06:53:00.075Z,1.30
2018-06-17T06:55:27.549Z,1.20
2018-06-17T06:57:55.104Z,1.10
2018-06-17T07:00:22.568Z,1.17
2018-06-17T07:06:14.659Z,1.50
2018-06-17T07:08:54.435Z,1.20
2018-06-17T07:11:21.972Z,1.97
2018-06-17T07:13:50.142Z,1.53
2018-06-17T07:16:41.372Z,1.53
2018-06-17T07:19:09.547Z,1.00
2018-06-17T07:21:37.023Z,1.20
2018-06-17T07:24:05.055Z,1.03
2018-06-17T07:29:46.215Z,1.40
2018-06-17T07:32:13.637Z,1.30
2018-06-17T07:34:41.106Z,1.37
2018-06-17T07:37:08.676Z,1.17
2018-06-17T07:39:36.903Z,1.13
2018-06-17T07:42:04.359Z,1.20
2018-06-17T07:44:31.817Z,1.30
2018-06-17T07:46:59.284Z,1.80
2018-06-17T07:49:38.662Z,1.10
2018-06-17T07:52:32.958Z,1.33
2018-06-17T07:55:00.499Z,1.07
2018-06-17T07:57:27.961Z,1.40
2018-06-17T07:59:55.891Z,1.00
2018-06-17T08:02:23.460Z,1.13
2018-06-17T08:04:51.779Z,1.17
2018-06-17T08:07:19.242Z,1.30
2018-06-17T08:09:46.699Z,1.20
2018-06-17T08:12:14.171Z,1.37
2018-06-17T08:14:41.632Z,1.40
2018-06-17T08:17:09.099Z,1.10
2018-06-17T08:19:36.571Z,1.33
2018-06-17T08:22:04.804Z,1.20
2018-06-17T08:24:32.350Z,1.30
2018-06-17T08:26:59.795Z,1.30
2018-06-17T08:29:28.034Z,1.20
2018-06-17T08:31:55.484Z,1.40
2018-06-17T08:34:22.968Z,1.20
2018-06-17T08:36:50.429Z,1.10
2018-06-17T08:39:17.901Z,1.17
2018-06-17T08:41:46.141Z,1.60
2018-06-17T08:44:13.635Z,1.83
2018-06-17T08:46:41.092Z,1.20
2018-06-17T08:49:08.651Z,1.20
2018-06-17T08:51:36.208Z,1.20
2018-06-17T08:54:03.775Z,1.40
2018-06-17T08:56:31.253Z,1.00
2018-06-17T08:58:59.552Z,1.27
2018-06-17T09:01:27.776Z,1.47
2018-06-17T09:03:55.285Z,1.40
2018-06-17T09:06:23.504Z,1.27
2018-06-17T09:08:50.973Z,1.13
2018-06-17T09:11:18.452Z,1.07
2018-06-17T09:13:45.899Z,1.40
2018-06-17T09:16:13.403Z,1.50
2018-06-17T09:18:40.957Z,1.37
2018-06-17T09:21:08.427Z,1.60
2018-06-17T09:23:35.974Z,1.40
2018-06-17T09:26:03.503Z,1.20
2018-06-17T09:28:30.955Z,1.30
2018-06-17T09:30:58.433Z,1.30
2018-06-17T09:33:25.917Z,1.20
2018-06-17T09:35:53.373Z,1.10
2018-06-17T09:38:20.827Z,1.30
2018-06-17T09:40:48.307Z,1.50
2018-06-17T09:43:16.482Z,2.50
2018-06-17T09:45:44.002Z,2.27
2018-06-17T09:48:12.231Z,1.33
2018-06-17T09:50:39.691Z,1.30
2018-06-17T09:53:07.204Z,1.80
2018-06-17T09:55:35.441Z,1.43
2018-06-17T09:58:03.012Z,1.30
2018-06-17T10:00:30.494Z,1.23
2018-06-17T10:02:58.058Z,1.40
2018-06-17T10:05:26.360Z,1.50
2018-06-17T10:07:53.881Z,1.60
2018-06-17T10:10:22.149Z,1.60
2018-06-17T10:12:49.734Z,1.40
2018-06-17T10:15:17.988Z,1.77
2018-06-17T10:17:46.857Z,1.10
2018-06-17T10:20:14.361Z,1.50
2018-06-17T10:22:41.840Z,1.30
2018-06-17T10:25:09.379Z,1.30
2018-06-17T10:27:36.843Z,1.50
2018-06-17T10:30:04.315Z,1.83
2018-06-17T10:32:31.784Z,1.93
2018-06-17T10:34:59.292Z,1.67
2018-06-17T10:37:26.736Z,1.80
2018-06-17T10:39:55.029Z,1.50
2018-06-17T10:42:22.484Z,1.40
2018-06-17T10:44:50.729Z,1.67
2018-06-17T10:47:18.181Z,1.33
2018-06-17T10:49:45.665Z,1.57
2018-06-17T10:52:13.929Z,1.23
2018-06-17T10:54:41.393Z,1.30
2018-06-17T10:57:09.623Z,1.37
2018-06-17T10:59:37.083Z,1.70
2018-06-17T11:02:04.543Z,1.47
2018-06-17T11:04:32.004Z,1.40
2018-06-17T11:06:59.678Z,1.53
2018-06-17T11:09:27.183Z,1.43
2018-06-17T11:11:54.740Z,1.20
2018-06-17T11:14:22.322Z,1.43
2018-06-17T11:16:49.871Z,1.30
2018-06-17T11:19:17.435Z,1.50
2018-06-17T11:21:45.005Z,1.50
2018-06-17T11:24:12.467Z,1.70
2018-06-17T11:26:40.026Z,1.40
2018-06-17T11:29:07.486Z,1.30
2018-06-17T11:31:34.948Z,1.40
2018-06-17T11:34:03.037Z,1.43
2018-06-17T11:36:30.491Z,1.43
2018-06-17T11:38:58.133Z,1.60
2018-06-17T11:41:26.347Z,1.43
2018-06-17T11:43:53.909Z,1.40
2018-06-17T11:46:21.461Z,1.30
2018-06-17T11:48:49.039Z,1.50
2018-06-17T11:51:16.498Z,1.40
2018-06-17T11:53:43.963Z,1.47
2018-06-17T11:56:11.430Z,1.77
2018-06-17T11:58:38.884Z,1.37
2018-06-17T12:01:06.336Z,1.40
2018-06-17T12:03:33.795Z,1.50
2018-06-17T12:06:01.255Z,1.47
2018-06-17T12:08:28.825Z,1.30
2018-06-17T12:10:56.399Z,1.50
2018-06-17T12:13:23.868Z,1.67
2018-06-17T12:15:52.110Z,1.50
2018-06-17T12:18:19.562Z,1.23
2018-06-17T12:20:47.047Z,1.30
2018-06-17T12:23:14.539Z,1.50
2018-06-17T12:25:42.797Z,2.27
2018-06-17T12:28:11.035Z,1.57
2018-06-17T12:30:38.504Z,1.50
2018-06-17T12:33:05.959Z,1.33
2018-06-17T12:35:33.416Z,1.80
2018-06-17T12:38:00.892Z,1.70
2018-06-17T12:40:29.396Z,2.43
2018-06-17T12:42:57.176Z,1.87
2018-06-17T12:45:24.654Z,1.97
2018-06-17T12:47:52.112Z,2.70
2018-06-17T12:50:19.661Z,2.30
2018-06-17T12:52:47.128Z,2.10
2018-06-17T12:55:14.705Z,1.50
2018-06-17T12:57:42.203Z,1.50
2018-06-17T13:00:11.162Z,1.70
2018-06-17T13:02:38.619Z,1.50
2018-06-17T13:05:06.091Z,1.73
2018-06-17T13:07:34.355Z,1.70
2018-06-17T13:10:01.932Z,1.73
2018-06-17T13:12:30.937Z,1.67
2018-06-17T13:14:58.479Z,1.40
2018-06-17T13:17:25.948Z,1.60
2018-06-17T13:19:53.391Z,1.60
2018-06-17T13:22:20.879Z,1.57
2018-06-17T13:24:48.351Z,1.73
2018-06-17T13:27:17.429Z,1.73
2018-06-17T13:29:44.924Z,2.20
2018-06-17T13:32:13.146Z,1.93
2018-06-17T13:34:40.636Z,2.23
2018-06-17T13:37:08.098Z,2.53
2018-06-17T13:39:35.555Z,3.70
2018-06-17T13:42:04.150Z,4.33
2018-06-17T13:44:31.615Z,3.00
2018-06-17T13:46:59.176Z,3.47
2018-06-17T13:49:26.619Z,3.10
2018-06-17T13:51:54.110Z,2.83
2018-06-17T13:54:21.574Z,3.17
2018-06-17T13:56:49.126Z,3.37
2018-06-17T13:59:16.584Z,3.20
2018-06-17T14:01:44.055Z,2.47
2018-06-17T14:04:11.507Z,2.57
2018-06-17T14:06:39.077Z,2.10
2018-06-17T14:09:06.535Z,2.37
2018-06-17T14:11:34.007Z,2.30
2018-06-17T14:14:02.287Z,2.00
2018-06-17T14:16:29.837Z,1.90
2018-06-17T14:18:57.400Z,1.60
2018-06-17T14:21:24.872Z,1.90
2018-06-17T14:23:53.675Z,2.03
2018-06-17T14:26:21.235Z,2.17
2018-06-17T14:28:48.789Z,2.30
2018-06-17T14:31:16.287Z,2.20
2018-06-17T14:33:43.820Z,2.70
2018-06-17T14:36:11.401Z,3.30
2018-06-17T14:38:40.367Z,2.07
2018-06-17T14:41:07.831Z,2.33
2018-06-17T14:46:30.475Z,1.87
2018-06-17T14:51:52.331Z,2.00
2018-06-17T14:54:19.791Z,2.13
2018-06-17T14:56:47.269Z,2.27
2018-06-17T14:59:14.719Z,2.23
2018-06-17T15:01:42.179Z,2.00
2018-06-17T15:04:09.744Z,1.90
2018-06-17T15:06:37.325Z,1.93
2018-06-17T15:09:04.940Z,2.13
2018-06-17T15:11:32.415Z,1.30
2018-06-17T15:13:59.919Z,1.80
2018-06-17T15:16:27.387Z,1.80
2018-06-17T15:18:54.892Z,1.77
2018-06-17T15:21:22.352Z,1.60
2018-06-17T15:23:49.807Z,2.50
2018-06-17T15:26:17.271Z,2.30
2018-06-17T15:28:44.797Z,2.23
2018-06-17T15:31:13.913Z,2.07
2018-06-17T15:36:50.465Z,1.80
2018-06-17T15:39:18.038Z,1.70
2018-06-17T15:41:47.112Z,1.50
2018-06-17T15:44:15.714Z,1.50
2018-06-17T15:46:43.125Z,1.60
2018-06-17T15:49:10.595Z,1.60
2018-06-17T15:51:38.098Z,1.50
2018-06-17T15:54:05.591Z,1.40
2018-06-17T15:56:33.830Z,1.73
2018-06-17T15:59:01.284Z,1.80
2018-06-17T16:01:28.762Z,1.80
2018-06-17T16:03:56.988Z,1.40
2018-06-17T16:06:24.476Z,1.30
2018-06-17T16:08:51.959Z,1.63
2018-06-17T16:11:19.519Z,1.70
2018-06-17T16:14:02.792Z,1.53
2018-06-17T16:19:40.451Z,1.80
2018-06-17T16:22:08.004Z,1.70
2018-06-17T16:24:35.710Z,2.00
2018-06-17T16:27:03.935Z,1.90
2018-06-17T16:29:31.415Z,1.50
2018-06-17T16:31:58.975Z,1.70
2018-06-17T16:34:27.521Z,1.60
2018-06-17T16:36:55.034Z,1.77
2018-06-17T16:39:22.500Z,1.40
2018-06-17T16:41:50.733Z,1.50
2018-06-17T16:44:19.410Z,1.90
2018-06-17T16:46:46.881Z,1.70
2018-06-17T16:49:14.331Z,1.67
2018-06-17T16:51:41.791Z,1.50
2018-06-17T16:54:24.149Z,1.67
2018-06-17T16:56:57.215Z,1.90
2018-06-17T17:02:21.618Z,2.20
2018-06-17T17:04:49.193Z,1.73
2018-06-17T17:07:17.036Z,1.80
2018-06-17T17:09:44.499Z,2.00
2018-06-17T17:12:11.967Z,2.83
2018-06-17T17:14:39.448Z,1.80
2018-06-17T17:17:06.923Z,2.00
2018-06-17T17:19:34.539Z,2.10
2018-06-17T17:22:02.037Z,1.80
2018-06-17T17:24:29.509Z,1.73
2018-06-17T17:26:56.977Z,1.70
2018-06-17T17:29:24.548Z,1.60
2018-06-17T17:31:52.010Z,1.80
2018-06-17T17:34:25.276Z,1.40
2018-06-17T17:40:05.795Z,1.95
2018-06-17T17:42:34.139Z,1.73
2018-06-17T17:45:01.628Z,1.63
2018-06-17T17:47:29.091Z,2.33
2018-06-17T17:49:56.620Z,1.50
2018-06-17T17:52:24.097Z,1.60
2018-06-17T17:54:51.657Z,1.50
2018-06-17T17:57:19.125Z,1.67
2018-06-17T17:59:46.580Z,1.60
2018-06-17T18:02:14.044Z,1.30
2018-06-17T18:04:41.511Z,1.33
2018-06-17T18:07:09.054Z,1.67
2018-06-17T18:09:36.696Z,2.20
2018-06-17T18:12:04.178Z,2.90
2018-06-17T18:14:31.661Z,2.63
2018-06-17T18:16:59.116Z,1.73
2018-06-17T18:19:26.581Z,1.83
2018-06-17T18:21:54.140Z,1.40
2018-06-17T18:24:21.713Z,1.33
2018-06-17T18:26:54.836Z,1.83
2018-06-17T18:29:28.895Z,1.80
2018-06-17T18:31:56.350Z,1.70
2018-06-17T18:37:18.012Z,1.65
2018-06-17T18:39:45.467Z,1.30
2018-06-17T18:42:12.945Z,1.50
2018-06-17T18:44:40.503Z,1.33
2018-06-17T18:47:08.058Z,1.43
2018-06-17T18:49:35.514Z,1.53
2018-06-17T18:52:02.975Z,1.37
2018-06-17T18:54:31.553Z,1.50
2018-06-17T18:56:59.043Z,1.30
2018-06-17T18:59:26.511Z,1.37
2018-06-17T19:01:53.980Z,1.40
2018-06-17T19:04:22.238Z,1.30
2018-06-17T19:06:49.698Z,1.43
2018-06-17T19:09:17.170Z,1.60
2018-06-17T19:12:02.452Z,1.23
2018-06-17T19:14:30.688Z,1.03
2018-06-17T19:17:13.035Z,1.40
2018-06-17T19:19:41.297Z,1.87
2018-06-17T19:22:08.873Z,1.70
2018-06-17T19:24:36.333Z,1.60
2018-06-17T19:27:04.551Z,1.77
2018-06-17T19:29:32.016Z,1.30
2018-06-17T19:31:59.483Z,1.30
2018-06-17T19:34:26.956Z,1.50
2018-06-17T19:36:54.430Z,1.73
2018-06-17T19:39:21.895Z,1.47
2018-06-17T19:41:49.528Z,1.60
2018-06-17T19:44:16.980Z,1.30
2018-06-17T19:46:44.437Z,1.40
2018-06-17T19:49:11.944Z,1.63
2018-06-17T19:54:54.974Z,1.70
2018-06-17T19:57:40.156Z,1.40
2018-06-17T20:00:24.062Z,1.60
2018-06-17T20:02:51.540Z,1.70
2018-06-17T20:05:19.000Z,2.30
2018-06-17T20:07:46.500Z,3.50
2018-06-17T20:10:14.755Z,1.77
2018-06-17T20:12:42.219Z,1.93
2018-06-17T20:15:09.668Z,1.80
2018-06-17T20:17:37.231Z,2.03
2018-06-17T20:20:04.800Z,1.47
2018-06-17T20:22:33.037Z,1.70
2018-06-17T20:25:00.496Z,2.20
2018-06-17T20:27:27.988Z,2.47
2018-06-17T20:29:55.460Z,1.90
2018-06-17T20:32:22.930Z,1.30
2018-06-17T20:35:07.204Z,1.83
2018-06-17T20:37:52.294Z,1.67
2018-06-17T20:40:19.739Z,1.57
2018-06-17T20:42:53.007Z,1.60
2018-06-17T20:45:21.975Z,1.23
2018-06-17T20:47:49.453Z,1.90
2018-06-17T20:50:16.921Z,1.40
2018-06-17T20:52:44.388Z,1.60
2018-06-17T20:55:11.863Z,1.70
2018-06-17T20:57:40.087Z,1.40
2018-06-17T21:00:07.571Z,1.60
2018-06-17T21:02:35.031Z,1.30
2018-06-17T21:05:02.488Z,1.40
2018-06-17T21:07:29.966Z,1.27
2018-06-17T21:09:57.522Z,1.20
2018-06-17T21:12:24.983Z,1.20
2018-06-17T21:14:52.559Z,1.40
2018-06-17T21:17:21.061Z,1.77
2018-06-17T21:19:54.215Z,1.50
2018-06-17T21:22:37.769Z,1.50
2018-06-17T21:27:58.568Z,1.42
2018-06-17T21:30:26.036Z,1.63
2018-06-17T21:32:53.600Z,1.43
2018-06-17T21:35:21.154Z,1.37
2018-06-17T21:37:48.631Z,1.33
2018-06-17T21:40:16.090Z,1.60
2018-06-17T21:42:44.124Z,1.43
2018-06-17T21:45:11.630Z,1.47
2018-06-17T21:47:39.108Z,1.30
2018-06-17T21:50:06.592Z,1.30
2018-06-17T21:52:34.827Z,1.40
2018-06-17T21:55:02.398Z,1.50
2018-06-17T21:57:29.875Z,1.30
2018-06-17T21:59:57.415Z,1.60
2018-06-17T22:02:24.989Z,1.40
2018-06-17T22:04:52.446Z,1.30
2018-06-17T22:07:20.011Z,1.43
2018-06-17T22:12:40.802Z,1.60
2018-06-17T22:15:24.081Z,1.50
2018-06-17T22:17:52.322Z,1.40
2018-06-17T22:20:19.778Z,1.20
2018-06-17T22:22:47.352Z,1.37
2018-06-17T22:25:14.920Z,1.40
2018-06-17T22:27:42.480Z,1.50
2018-06-17T22:30:09.939Z,1.33
2018-06-17T22:32:37.436Z,1.40
2018-06-17T22:35:05.689Z,1.60
2018-06-17T22:37:33.243Z,1.30
2018-06-17T22:42:28.183Z,1.37
2018-06-17T22:44:55.743Z,1.70
2018-06-17T22:47:23.190Z,1.10
2018-06-17T22:49:50.662Z,1.20
2018-06-17T22:52:18.123Z,1.50
2018-06-17T22:54:46.412Z,1.37
2018-06-17T22:57:13.869Z,1.20
2018-06-17T22:59:47.143Z,1.47
2018-06-17T23:02:30.417Z,1.73
2018-06-17T23:05:13.540Z,1.30
2018-06-17T23:07:57.450Z,1.27
2018-06-17T23:10:24.908Z,1.20
2018-06-17T23:12:52.464Z,1.37
2018-06-17T23:15:20.028Z,1.40
2018-06-17T23:17:47.590Z,1.40
2018-06-17T23:20:15.147Z,1.57
2018-06-17T23:22:42.628Z,1.37
2018-06-17T23:25:10.077Z,1.30
2018-06-17T23:27:37.555Z,1.80
2018-06-17T23:30:05.012Z,1.03
2018-06-17T23:32:32.472Z,1.53
2018-06-17T23:35:00.397Z,1.43
2018-06-17T23:37:28.009Z,1.20
2018-06-17T23:39:55.480Z,1.40
2018-06-17T23:42:23.024Z,1.13
2018-06-17T23:44:50.599Z,1.60
2018-06-17T23:47:37.916Z,1.50
2018-06-17T23:50:20.879Z,1.67
2018-06-17T23:53:05.030Z,1.60
2018-06-17T23:58:26.932Z,1.48
